Time;durP1;ratioP1;P1;durP2;ratioP2;P2;SDS_P1;SDS_P2;PMS_P1;PMS_P2;Temp;Humidity;BMP_temperature;BMP_pressure;BME280_temperature;BME280_humidity;BME280_pressure;Samples;Min_cycle;Max_cycle;Signal;HPM_P1;HPM_P2
2021/10/19 00:00:30;;;;;;;26.63;13.30;;;;;;;;;;6282728;22;20300;-90
2021/10/19 00:03:38;;;;;;;25.00;12.10;;;;;;;;;;6282381;22;20164;-90
2021/10/19 00:06:46;;;;;;;30.30;13.43;;;;;;;;;;6282355;22;20189;-90
2021/10/19 00:09:55;;;;;;;24.77;12.30;;;;;;;;;;6282697;22;20204;-91
2021/10/19 00:13:01;;;;;;;25.53;12.00;;;;;;;;;;6282436;22;20185;-91
2021/10/19 00:16:08;;;;;;;25.33;12.30;;;;;;;;;;6283440;22;20213;-92
2021/10/19 00:19:14;;;;;;;35.93;13.07;;;;;;;;;;6283158;22;20230;-91
2021/10/19 00:22:21;;;;;;;25.10;12.23;;;;;;;;;;6282098;22;20170;-91
2021/10/19 00:25:27;;;;;;;24.10;12.47;;;;;;;;;;6282003;22;20161;-91
2021/10/19 00:28:34;;;;;;;31.83;13.33;;;;;;;;;;6282741;22;20213;-91
2021/10/19 00:31:39;;;;;;;26.93;12.10;;;;;;;;;;6282778;22;20185;-90
2021/10/19 00:34:47;;;;;;;29.33;12.43;;;;;;;;;;6281830;22;20213;-91
2021/10/19 00:37:55;;;;;;;27.23;12.93;;;;;;;;;;6282159;22;20172;-91
2021/10/19 00:41:01;;;;;;;29.70;12.40;;;;;;;;;;6283338;22;20157;-91
2021/10/19 00:44:06;;;;;;;33.30;12.93;;;;;;;;;;6282562;22;20173;-90
2021/10/19 00:47:18;;;;;;;39.80;14.17;;;;;;;;;;6298881;22;20192;-90
2021/10/19 00:50:25;;;;;;;27.87;12.77;;;;;;;;;;6281184;22;20168;-90
2021/10/19 00:53:40;;;;;;;25.53;12.50;;;;;;;;;;6282914;22;20204;-91
2021/10/19 00:56:47;;;;;;;32.43;12.57;;;;;;;;;;6281087;22;20157;-89
2021/10/19 00:59:53;;;;;;;28.50;13.43;;;;;;;;;;6281689;22;20196;-90
2021/10/19 01:02:59;;;;;;;31.13;13.03;;;;;;;;;;6282958;22;20178;-90
2021/10/19 01:06:07;;;;;;;27.20;13.10;;;;;;;;;;6282450;22;20252;-89
2021/10/19 01:09:14;;;;;;;30.80;14.13;;;;;;;;;;6281606;22;20177;-90
2021/10/19 01:12:20;;;;;;;33.50;13.70;;;;;;;;;;6282469;22;20170;-91
2021/10/19 01:15:26;;;;;;;35.03;14.33;;;;;;;;;;6301481;22;20242;-92
2021/10/19 01:18:32;;;;;;;43.03;14.17;;;;;;;;;;6301289;22;20189;-89
2021/10/19 01:21:39;;;;;;;33.90;14.23;;;;;;;;;;6281473;22;20169;-90
2021/10/19 01:24:44;;;;;;;32.47;13.13;;;;;;;;;;6282417;22;20193;-91
2021/10/19 01:27:51;;;;;;;30.57;13.27;;;;;;;;;;6281894;22;20236;-91
2021/10/19 01:30:58;;;;;;;35.07;13.80;;;;;;;;;;6281700;22;20161;-91
2021/10/19 01:34:04;;;;;;;31.17;13.37;;;;;;;;;;6282449;22;20223;-90
2021/10/19 01:37:13;;;;;;;29.60;12.83;;;;;;;;;;6282803;22;20294;-91
2021/10/19 01:40:18;;;;;;;29.37;12.83;;;;;;;;;;6282378;22;20219;-90
2021/10/19 01:43:25;;;;;;;30.47;14.43;;;;;;;;;;6282483;22;20226;-90
2021/10/19 01:46:31;;;;;;;33.80;14.00;;;;;;;;;;6282650;22;20205;-90
2021/10/19 01:49:42;;;;;;;27.03;12.43;;;;;;;;;;6282024;22;20174;-90
2021/10/19 01:52:53;;;;;;;28.57;13.70;;;;;;;;;;6300634;22;20173;-91
2021/10/19 01:55:59;;;;;;;23.60;11.60;;;;;;;;;;6282499;22;20149;-91
2021/10/19 01:59:05;;;;;;;35.50;14.67;;;;;;;;;;6281726;22;20174;-91
2021/10/19 02:02:10;;;;;;;28.07;13.10;;;;;;;;;;6282869;22;20276;-90
2021/10/19 02:05:17;;;;;;;27.70;13.37;;;;;;;;;;6282540;22;20173;-90
2021/10/19 02:08:26;;;;;;;34.17;14.07;;;;;;;;;;6281902;22;20204;-91
2021/10/19 02:11:32;;;;;;;32.97;14.20;;;;;;;;;;6281509;22;20170;-89
2021/10/19 02:14:37;;;;;;;32.13;14.73;;;;;;;;;;6282189;22;20173;-90
2021/10/19 02:17:54;;;;;;;36.40;15.30;;;;;;;;;;6282126;22;20225;-90
2021/10/19 02:20:59;;;;;;;36.00;15.37;;;;;;;;;;6282043;22;20205;-92
2021/10/19 02:24:07;;;;;;;31.27;15.13;;;;;;;;;;6281222;22;20219;-90
2021/10/19 02:27:13;;;;;;;34.77;14.83;;;;;;;;;;6291835;22;20193;-90
2021/10/19 02:30:20;;;;;;;33.90;14.80;;;;;;;;;;6298456;22;20515;-90
2021/10/19 02:33:26;;;;;;;32.00;14.30;;;;;;;;;;6299470;22;20201;-89
2021/10/19 02:36:33;;;;;;;44.90;14.50;;;;;;;;;;6298872;22;20169;-91
2021/10/19 02:39:41;;;;;;;33.27;13.33;;;;;;;;;;6299104;22;20189;-90
2021/10/19 02:42:48;;;;;;;29.80;13.90;;;;;;;;;;6298872;22;20174;-91
2021/10/19 02:45:55;;;;;;;50.83;14.43;;;;;;;;;;6299291;22;20169;-91
2021/10/19 02:52:20;;;;;;;33.37;14.60;;;;;;;;;;6300283;22;20194;-90
2021/10/19 02:55:28;;;;;;;67.53;16.10;;;;;;;;;;6299928;22;20170;-91
2021/10/19 02:58:35;;;;;;;42.63;16.23;;;;;;;;;;6299323;22;20212;-91
2021/10/19 03:01:41;;;;;;;34.80;15.70;;;;;;;;;;6299490;22;20487;-91
2021/10/19 03:04:48;;;;;;;39.50;14.57;;;;;;;;;;6299438;22;20161;-90
2021/10/19 03:07:54;;;;;;;35.80;14.40;;;;;;;;;;6298911;22;20181;-91
2021/10/19 03:11:01;;;;;;;35.17;15.13;;;;;;;;;;6299273;22;20166;-91
2021/10/19 03:14:08;;;;;;;31.83;14.07;;;;;;;;;;6299173;22;20218;-91
2021/10/19 03:17:13;;;;;;;29.40;14.40;;;;;;;;;;6299167;22;20195;-90
2021/10/19 03:20:19;;;;;;;37.57;14.30;;;;;;;;;;6298756;22;20181;-90
2021/10/19 03:23:25;;;;;;;31.07;14.40;;;;;;;;;;6298844;22;20173;-90
2021/10/19 03:26:46;;;;;;;32.27;14.93;;;;;;;;;;6298115;22;20192;-90
2021/10/19 03:29:51;;;;;;;29.43;14.30;;;;;;;;;;6298935;22;20169;-91
2021/10/19 03:32:58;;;;;;;46.40;13.70;;;;;;;;;;6298862;22;20173;-90
2021/10/19 03:36:06;;;;;;;51.63;15.33;;;;;;;;;;6298233;22;20169;-91
2021/10/19 03:42:33;;;;;;;44.30;15.10;;;;;;;;;;6298684;22;20162;-91
2021/10/19 03:45:38;;;;;;;50.13;15.43;;;;;;;;;;6298560;22;20241;-89
2021/10/19 03:48:43;;;;;;;38.37;15.80;;;;;;;;;;6298652;22;20224;-91
2021/10/19 03:51:49;;;;;;;38.23;15.20;;;;;;;;;;6299578;22;20153;-91
2021/10/19 03:54:55;;;;;;;40.83;15.50;;;;;;;;;;6299260;22;20185;-91
2021/10/19 03:58:03;;;;;;;72.13;16.93;;;;;;;;;;6297808;22;20166;-90
2021/10/19 04:05:28;;;;;;;38.27;15.87;;;;;;;;;;6299149;22;20198;-90
2021/10/19 04:08:34;;;;;;;46.97;16.83;;;;;;;;;;6298914;22;20197;-91
2021/10/19 04:11:42;;;;;;;80.47;18.80;;;;;;;;;;6298511;22;20220;-91
2021/10/19 04:14:50;;;;;;;48.03;17.23;;;;;;;;;;6280630;22;20166;-91
2021/10/19 04:17:58;;;;;;;41.73;16.33;;;;;;;;;;6298550;22;20177;-90
2021/10/19 04:21:03;;;;;;;62.90;16.90;;;;;;;;;;6299187;22;20174;-90
2021/10/19 04:24:09;;;;;;;43.03;17.93;;;;;;;;;;6298612;22;20177;-90
2021/10/19 04:27:15;;;;;;;56.30;17.70;;;;;;;;;;6298926;22;20190;-91
2021/10/19 07:59:06;;;;;;;27.37;14.20;;;;;;;;;;6230383;23;20172;-90
2021/10/19 08:02:13;;;;;;;33.47;15.57;;;;;;;;;;6211959;23;20159;-91
2021/10/19 08:05:22;;;;;;;31.60;15.13;;;;;;;;;;6214991;23;20257;-92
2021/10/19 08:08:27;;;;;;;35.63;15.20;;;;;;;;;;6214381;23;20175;-92
2021/10/19 08:11:35;;;;;;;33.40;15.97;;;;;;;;;;6199997;23;20170;-91
2021/10/19 08:14:44;;;;;;;31.30;15.27;;;;;;;;;;6217261;23;20167;-91
2021/10/19 08:17:51;;;;;;;30.87;15.87;;;;;;;;;;6215222;23;20164;-91
2021/10/19 08:20:56;;;;;;;33.33;16.13;;;;;;;;;;6216295;23;20263;-91
2021/10/19 08:24:02;;;;;;;32.43;16.63;;;;;;;;;;6215036;23;20198;-90
2021/10/19 08:27:08;;;;;;;35.93;15.10;;;;;;;;;;6216244;23;20170;-91
2021/10/19 08:30:17;;;;;;;32.13;16.07;;;;;;;;;;6214545;23;20174;-91
2021/10/19 08:33:22;;;;;;;32.80;15.23;;;;;;;;;;6216395;23;20210;-94
2021/10/19 08:36:27;;;;;;;31.27;16.60;;;;;;;;;;6216803;22;20170;-88
2021/10/19 08:39:33;;;;;;;29.17;15.32;;;;;;;;;;6215091;23;20171;-92
2021/10/19 08:42:44;;;;;;;29.38;15.80;;;;;;;;;;6216499;22;20197;-91
2021/10/19 08:45:52;;;;;;;27.58;14.70;;;;;;;;;;6216614;23;20175;-91
2021/10/19 08:48:57;;;;;;;27.77;15.13;;;;;;;;;;6214887;23;20179;-92
2021/10/19 08:52:02;;;;;;;31.60;15.85;;;;;;;;;;6213697;22;20174;-89
2021/10/19 08:55:08;;;;;;;30.70;15.50;;;;;;;;;;6214485;23;20175;-91
2021/10/19 08:58:13;;;;;;;25.10;13.93;;;;;;;;;;6200400;23;20191;-90
2021/10/19 09:01:20;;;;;;;33.75;15.50;;;;;;;;;;6199791;23;20183;-90
2021/10/19 09:04:28;;;;;;;30.38;15.45;;;;;;;;;;6201902;23;20239;-91
2021/10/19 09:07:33;;;;;;;32.05;15.05;;;;;;;;;;6202001;23;20175;-90
2021/10/19 09:10:39;;;;;;;30.60;15.77;;;;;;;;;;6202591;22;20148;-88
2021/10/19 09:13:53;;;;;;;34.92;17.13;;;;;;;;;;6200968;23;20242;-89
2021/10/19 09:17:02;;;;;;;30.77;15.98;;;;;;;;;;6200543;23;20167;-90
2021/10/19 09:20:15;;;;;;;33.70;16.17;;;;;;;;;;6200238;22;20246;-91
2021/10/19 09:23:27;;;;;;;27.17;14.90;;;;;;;;;;6201264;23;20240;-92
2021/10/19 09:26:32;;;;;;;33.65;17.10;;;;;;;;;;6200109;23;20219;-90
2021/10/19 09:29:38;;;;;;;37.97;18.55;;;;;;;;;;6200353;23;20208;-93
2021/10/19 09:32:52;;;;;;;37.13;17.95;;;;;;;;;;6200202;23;20243;-92
2021/10/19 09:35:59;;;;;;;38.47;18.55;;;;;;;;;;6201895;23;20241;-90
2021/10/19 09:39:05;;;;;;;39.63;18.70;;;;;;;;;;6202069;22;20176;-92
2021/10/19 09:42:12;;;;;;;39.30;19.45;;;;;;;;;;6201341;22;20247;-91
2021/10/19 09:45:17;;;;;;;41.53;20.30;;;;;;;;;;6201238;23;20168;-93
2021/10/19 09:48:26;;;;;;;34.05;18.42;;;;;;;;;;6201127;22;20191;-91
2021/10/19 09:51:38;;;;;;;35.58;18.42;;;;;;;;;;6202340;22;20247;-90
2021/10/19 09:54:44;;;;;;;34.13;18.27;;;;;;;;;;6199277;23;20172;-90
2021/10/19 09:57:52;;;;;;;35.65;19.15;;;;;;;;;;6182511;23;20651;-91
2021/10/19 10:00:59;;;;;;;34.05;18.63;;;;;;;;;;6199670;23;20188;-91
2021/10/19 10:04:21;;;;;;;38.47;19.85;;;;;;;;;;6200448;23;20156;-90
2021/10/19 10:07:30;;;;;;;35.15;18.52;;;;;;;;;;6201220;23;20196;-91
2021/10/19 10:10:38;;;;;;;37.13;18.98;;;;;;;;;;6204000;23;20183;-91
2021/10/19 10:13:44;;;;;;;33.22;17.20;;;;;;;;;;6203764;23;20220;-91
2021/10/19 10:16:52;;;;;;;34.55;17.67;;;;;;;;;;6206873;23;20180;-93
2021/10/19 10:20:10;;;;;;;31.42;17.27;;;;;;;;;;6205956;23;20180;-92
2021/10/19 10:27:16;;;;;;;34.80;16.25;;;;;;;;;;6204858;23;20494;-91
2021/10/19 10:33:47;;;;;;;35.15;17.08;;;;;;;;;;6204741;23;20168;-90
2021/10/19 10:40:30;;;;;;;38.35;18.30;;;;;;;;;;6205241;22;20179;-93
2021/10/19 10:47:08;;;;;;;32.33;17.52;;;;;;;;;;6206023;23;20223;-92
2021/10/19 15:23:19;;;;;;;22.83;10.95;;;;;;;;;;6289879;22;20198;-92
2021/10/19 15:30:01;;;;;;;34.38;17.85;;;;;;;;;;6279953;22;20344;-91
2021/10/19 15:33:14;;;;;;;29.17;14.52;;;;;;;;;;6282105;22;20169;-92
2021/10/19 22:27:56;;;;;;;20.42;9.27;;;;;;;;;;6274165;22;20201;-90
2021/10/19 22:31:01;;;;;;;19.95;10.27;;;;;;;;;;6273261;22;20264;-90
2021/10/19 22:34:07;;;;;;;21.40;10.98;;;;;;;;;;6272535;22;20189;-90
2021/10/19 22:37:13;;;;;;;18.33;10.32;;;;;;;;;;6273443;22;20241;-88
2021/10/19 22:40:20;;;;;;;19.63;10.50;;;;;;;;;;6272597;22;20169;-91
2021/10/19 22:43:25;;;;;;;19.23;9.73;;;;;;;;;;6274397;22;20277;-89
2021/10/19 22:46:31;;;;;;;22.38;11.23;;;;;;;;;;6275224;22;20193;-89
2021/10/19 22:49:36;;;;;;;26.98;11.80;;;;;;;;;;6277859;22;20245;-89
2021/10/19 22:52:42;;;;;;;25.25;11.52;;;;;;;;;;6272892;22;20189;-89
2021/10/19 22:55:48;;;;;;;23.30;10.40;;;;;;;;;;6271839;22;20249;-89
